sensor_id;sensor_type;location;lat;lon;timestamp;pressure;altitude;pressure_sealevel;temperature;humidity
34506;BME280;20748;42.632;23.198;2023-12-07T00:01:39;91594.47;;;4.19;100.00
34506;BME280;20748;42.632;23.198;2023-12-07T00:04:13;91600.16;;;4.21;100.00
34506;BME280;20748;42.632;23.198;2023-12-07T00:06:47;91597.28;;;4.22;100.00
34506;BME280;20748;42.632;23.198;2023-12-07T00:09:22;91594.44;;;4.24;100.00
34506;BME280;20748;42.632;23.198;2023-12-07T00:11:56;91590.59;;;4.16;100.00
34506;BME280;20748;42.632;23.198;2023-12-07T00:14:30;91603.84;;;4.04;100.00
34506;BME280;20748;42.632;23.198;2023-12-07T00:17:03;91602.81;;;4.05;100.00
34506;BME280;20748;42.632;23.198;2023-12-07T00:19:37;91606.41;;;4.09;100.00
34506;BME280;20748;42.632;23.198;2023-12-07T00:22:11;91603.81;;;4.14;100.00
34506;BME280;20748;42.632;23.198;2023-12-07T00:24:46;91610.78;;;4.14;100.00
34506;BME280;20748;42.632;23.198;2023-12-07T00:27:19;91602.75;;;4.15;100.00
34506;BME280;20748;42.632;23.198;2023-12-07T00:29:53;91607.59;;;4.22;100.00
34506;BME280;20748;42.632;23.198;2023-12-07T00:32:27;91603.72;;;4.25;100.00
34506;BME280;20748;42.632;23.198;2023-12-07T00:35:01;91605.81;;;4.23;100.00
34506;BME280;20748;42.632;23.198;2023-12-07T00:37:34;91603.72;;;4.25;100.00
34506;BME280;20748;42.632;23.198;2023-12-07T00:40:10;91607.09;;;4.25;100.00
34506;BME280;20748;42.632;23.198;2023-12-07T00:42:44;91605.78;;;4.28;100.00
34506;BME280;20748;42.632;23.198;2023-12-07T00:45:18;91612.97;;;4.31;100.00
34506;BME280;20748;42.632;23.198;2023-12-07T00:47:52;91604.47;;;4.30;100.00
34506;BME280;20748;42.632;23.198;2023-12-07T00:50:26;91601.63;;;4.32;100.00
34506;BME280;20748;42.632;23.198;2023-12-07T00:52:59;91607.28;;;4.34;100.00
34506;BME280;20748;42.632;23.198;2023-12-07T00:55:34;91606.50;;;4.34;100.00
34506;BME280;20748;42.632;23.198;2023-12-07T00:58:08;91610.41;;;4.31;100.00
34506;BME280;20748;42.632;23.198;2023-12-07T01:00:42;91599.06;;;4.32;100.00
34506;BME280;20748;42.632;23.198;2023-12-07T01:03:16;91603.69;;;4.30;100.00
34506;BME280;20748;42.632;23.198;2023-12-07T01:05:50;91604.22;;;4.32;100.00
34506;BME280;20748;42.632;23.198;2023-12-07T01:08:24;91601.63;;;4.32;100.00
34506;BME280;20748;42.632;23.198;2023-12-07T01:10:59;91602.13;;;4.34;100.00
34506;BME280;20748;42.632;23.198;2023-12-07T01:13:33;91600.03;;;4.36;100.00
34506;BME280;20748;42.632;23.198;2023-12-07T01:16:08;91592.81;;;4.38;100.00
34506;BME280;20748;42.632;23.198;2023-12-07T01:18:42;91585.09;;;4.33;100.00
34506;BME280;20748;42.632;23.198;2023-12-07T01:21:18;91589.53;;;4.22;100.00
34506;BME280;20748;42.632;23.198;2023-12-07T01:23:52;91586.69;;;4.24;100.00
34506;BME280;20748;42.632;23.198;2023-12-07T01:26:42;91578.97;;;4.19;100.00
34506;BME280;20748;42.632;23.198;2023-12-07T01:29:16;91587.50;;;4.19;100.00
34506;BME280;20748;42.632;23.198;2023-12-07T01:31:50;91591.84;;;4.24;100.00
34506;BME280;20748;42.632;23.198;2023-12-07T01:34:24;91588.75;;;4.27;100.00
34506;BME280;20748;42.632;23.198;2023-12-07T01:36:58;91575.28;;;4.30;100.00
34506;BME280;20748;42.632;23.198;2023-12-07T01:39:31;91577.88;;;4.30;100.00
34506;BME280;20748;42.632;23.198;2023-12-07T01:42:07;91579.94;;;4.33;100.00
34506;BME280;20748;42.632;23.198;2023-12-07T01:44:41;91577.59;;;4.32;100.00
34506;BME280;20748;42.632;23.198;2023-12-07T01:47:15;91577.34;;;4.33;100.00
34506;BME280;20748;42.632;23.198;2023-12-07T01:49:49;91582.50;;;4.33;100.00
34506;BME280;20748;42.632;23.198;2023-12-07T01:52:23;91579.13;;;4.33;100.00
34506;BME280;20748;42.632;23.198;2023-12-07T01:54:58;91566.56;;;4.26;100.00
34506;BME280;20748;42.632;23.198;2023-12-07T01:57:35;91577.38;;;4.28;100.00
34506;BME280;20748;42.632;23.198;2023-12-07T02:00:09;91582.00;;;4.31;100.00
34506;BME280;20748;42.632;23.198;2023-12-07T02:02:44;91581.75;;;4.27;100.00
34506;BME280;20748;42.632;23.198;2023-12-07T02:05:19;91576.88;;;4.26;100.00
34506;BME280;20748;42.632;23.198;2023-12-07T02:07:53;91588.28;;;4.20;100.00
34506;BME280;20748;42.632;23.198;2023-12-07T02:10:27;91575.13;;;4.16;100.00
34506;BME280;20748;42.632;23.198;2023-12-07T02:13:02;91573.84;;;4.13;100.00
34506;BME280;20748;42.632;23.198;2023-12-07T02:15:36;91583.19;;;4.09;100.00
34506;BME280;20748;42.632;23.198;2023-12-07T02:18:14;91585.75;;;4.09;100.00
34506;BME280;20748;42.632;23.198;2023-12-07T02:20:55;91575.13;;;4.16;100.00
34506;BME280;20748;42.632;23.198;2023-12-07T02:23:32;91581.78;;;4.22;100.00
34506;BME280;20748;42.632;23.198;2023-12-07T02:26:21;91571.47;;;4.22;100.00
34506;BME280;20748;42.632;23.198;2023-12-07T02:28:58;91582.81;;;4.26;100.00
34506;BME280;20748;42.632;23.198;2023-12-07T02:31:31;91577.13;;;4.29;100.00
34506;BME280;20748;42.632;23.198;2023-12-07T02:34:06;91576.56;;;4.33;100.00
34506;BME280;20748;42.632;23.198;2023-12-07T02:36:41;91576.78;;;4.36;100.00
34506;BME280;20748;42.632;23.198;2023-12-07T02:39:17;91576.03;;;4.36;100.00
34506;BME280;20748;42.632;23.198;2023-12-07T02:41:51;91577.31;;;4.38;100.00
34506;BME280;20748;42.632;23.198;2023-12-07T02:44:28;91570.53;;;4.42;100.00
34506;BME280;20748;42.632;23.198;2023-12-07T02:47:02;91574.19;;;4.41;100.00
34506;BME280;20748;42.632;23.198;2023-12-07T02:49:36;91572.63;;;4.40;100.00
34506;BME280;20748;42.632;23.198;2023-12-07T02:52:09;91570.84;;;4.41;100.00
34506;BME280;20748;42.632;23.198;2023-12-07T02:54:43;91563.09;;;4.41;100.00
34506;BME280;20748;42.632;23.198;2023-12-07T02:57:17;91566.41;;;4.41;100.00
34506;BME280;20748;42.632;23.198;2023-12-07T02:59:52;91567.97;;;4.42;100.00
34506;BME280;20748;42.632;23.198;2023-12-07T03:02:26;91565.94;;;4.39;100.00
34506;BME280;20748;42.632;23.198;2023-12-07T03:04:59;91567.22;;;4.42;100.00
34506;BME280;20748;42.632;23.198;2023-12-07T03:07:34;91569.28;;;4.40;100.00
34506;BME280;20748;42.632;23.198;2023-12-07T03:10:08;91553.09;;;4.29;100.00
34506;BME280;20748;42.632;23.198;2023-12-07T03:12:42;91567.47;;;4.40;100.00
34506;BME280;20748;42.632;23.198;2023-12-07T03:15:17;91569.00;;;4.41;100.00
34506;BME280;20748;42.632;23.198;2023-12-07T03:17:51;91574.19;;;4.41;100.00
34506;BME280;20748;42.632;23.198;2023-12-07T03:20:24;91570.53;;;4.42;100.00
34506;BME280;20748;42.632;23.198;2023-12-07T03:22:58;91571.59;;;4.41;100.00
34506;BME280;20748;42.632;23.198;2023-12-07T03:25:32;91576.47;;;4.48;100.00
34506;BME280;20748;42.632;23.198;2023-12-07T03:28:06;91584.72;;;4.45;100.00
34506;BME280;20748;42.632;23.198;2023-12-07T03:30:41;91581.41;;;4.45;100.00
34506;BME280;20748;42.632;23.198;2023-12-07T03:33:15;91580.63;;;4.44;100.00
34506;BME280;20748;42.632;23.198;2023-12-07T03:35:48;91579.31;;;4.47;100.00
34506;BME280;20748;42.632;23.198;2023-12-07T03:38:22;91576.97;;;4.45;100.00
34506;BME280;20748;42.632;23.198;2023-12-07T03:40:56;91578.78;;;4.50;100.00
34506;BME280;20748;42.632;23.198;2023-12-07T03:43:29;91574.38;;;4.50;100.00
34506;BME280;20748;42.632;23.198;2023-12-07T03:46:05;91576.97;;;4.45;100.00
34506;BME280;20748;42.632;23.198;2023-12-07T03:48:39;91581.06;;;4.51;100.00
34506;BME280;20748;42.632;23.198;2023-12-07T03:51:13;91577.50;;;4.47;100.00
34506;BME280;20748;42.632;23.198;2023-12-07T03:53:49;91575.19;;;4.46;100.00
34506;BME280;20748;42.632;23.198;2023-12-07T03:56:26;91571.81;;;4.45;100.00
34506;BME280;20748;42.632;23.198;2023-12-07T03:59:00;91574.69;;;4.43;100.00
34506;BME280;20748;42.632;23.198;2023-12-07T04:01:35;91574.44;;;4.40;100.00
34506;BME280;20748;42.632;23.198;2023-12-07T04:04:09;91572.88;;;4.44;100.00
34506;BME280;20748;42.632;23.198;2023-12-07T04:06:43;91573.22;;;4.32;100.00
34506;BME280;20748;42.632;23.198;2023-12-07T04:09:16;91575.03;;;4.32;100.00
34506;BME280;20748;42.632;23.198;2023-12-07T04:11:50;91577.41;;;4.23;100.00
34506;BME280;20748;42.632;23.198;2023-12-07T04:14:24;91579.56;;;4.10;100.00
34506;BME280;20748;42.632;23.198;2023-12-07T04:16:59;91588.16;;;3.95;100.00
34506;BME280;20748;42.632;23.198;2023-12-07T04:19:33;91589.00;;;3.85;100.00
34506;BME280;20748;42.632;23.198;2023-12-07T04:22:06;91598.63;;;3.64;100.00
34506;BME280;20748;42.632;23.198;2023-12-07T04:24:40;91594.75;;;3.67;100.00
34506;BME280;20748;42.632;23.198;2023-12-07T04:27:14;91599.66;;;3.63;100.00
34506;BME280;20748;42.632;23.198;2023-12-07T04:29:47;91601.72;;;3.66;100.00
34506;BME280;20748;42.632;23.198;2023-12-07T04:32:22;91602.78;;;3.55;100.00
34506;BME280;20748;42.632;23.198;2023-12-07T04:34:57;91603.09;;;3.43;100.00
34506;BME280;20748;42.632;23.198;2023-12-07T04:37:30;91607.47;;;3.37;100.00
34506;BME280;20748;42.632;23.198;2023-12-07T04:40:05;91605.13;;;3.46;100.00
34506;BME280;20748;42.632;23.198;2023-12-07T04:42:39;91598.94;;;3.47;100.00
34506;BME280;20748;42.632;23.198;2023-12-07T04:45:13;91606.44;;;3.43;100.00
34506;BME280;20748;42.632;23.198;2023-12-07T04:47:48;91607.47;;;3.37;100.00
34506;BME280;20748;42.632;23.198;2023-12-07T04:50:22;91609.28;;;3.42;100.00
34506;BME280;20748;42.632;23.198;2023-12-07T04:52:56;91600.56;;;3.27;100.00
34506;BME280;20748;42.632;23.198;2023-12-07T04:55:29;91610.09;;;3.21;100.00
34506;BME280;20748;42.632;23.198;2023-12-07T04:58:03;91616.53;;;3.24;100.00
34506;BME280;20748;42.632;23.198;2023-12-07T05:00:37;91603.66;;;3.24;100.00
34506;BME280;20748;42.632;23.198;2023-12-07T05:03:12;91610.13;;;3.16;100.00
34506;BME280;20748;42.632;23.198;2023-12-07T05:05:46;91611.16;;;3.10;100.00
34506;BME280;20748;42.632;23.198;2023-12-07T05:08:20;91607.28;;;3.13;100.00
34506;BME280;20748;42.632;23.198;2023-12-07T05:10:54;91591.63;;;2.88;100.00
34506;BME280;20748;42.632;23.198;2023-12-07T05:13:28;91609.66;;;2.93;100.00
34506;BME280;20748;42.632;23.198;2023-12-07T05:16:02;91611.44;;;2.88;100.00
34506;BME280;20748;42.632;23.198;2023-12-07T05:18:37;91610.16;;;2.95;100.00
34506;BME280;20748;42.632;23.198;2023-12-07T05:21:11;91611.19;;;3.05;100.00
34506;BME280;20748;42.632;23.198;2023-12-07T05:23:45;91620.97;;;3.03;100.00
34506;BME280;20748;42.632;23.198;2023-12-07T05:26:19;91621.47;;;3.10;100.00
34506;BME280;20748;42.632;23.198;2023-12-07T05:28:53;91627.16;;;3.07;100.00
34506;BME280;20748;42.632;23.198;2023-12-07T05:31:27;91631.28;;;2.92;100.00
34506;BME280;20748;42.632;23.198;2023-12-07T05:34:02;91636.44;;;3.03;100.00
34506;BME280;20748;42.632;23.198;2023-12-07T05:36:36;91635.88;;;3.21;100.00
34506;BME280;20748;42.632;23.198;2023-12-07T05:39:10;91639.25;;;3.22;100.00
34506;BME280;20748;42.632;23.198;2023-12-07T05:41:45;91648.50;;;3.28;100.00
34506;BME280;20748;42.632;23.198;2023-12-07T05:44:19;91641.03;;;3.21;100.00
34506;BME280;20748;42.632;23.198;2023-12-07T05:46:54;91645.44;;;3.26;100.00
34506;BME280;20748;42.632;23.198;2023-12-07T05:49:31;91647.47;;;3.34;100.00
34506;BME280;20748;42.632;23.198;2023-12-07T05:52:05;91645.41;;;3.31;100.00
34506;BME280;20748;42.632;23.198;2023-12-07T05:54:39;91652.88;;;3.28;100.00
34506;BME280;20748;42.632;23.198;2023-12-07T05:57:14;91655.19;;;3.40;100.00
34506;BME280;20748;42.632;23.198;2023-12-07T05:59:48;91657.53;;;3.20;100.00
34506;BME280;20748;42.632;23.198;2023-12-07T06:02:22;91650.34;;;3.17;100.00
34506;BME280;20748;42.632;23.198;2023-12-07T06:04:57;91660.38;;;3.24;100.00
34506;BME280;20748;42.632;23.198;2023-12-07T06:07:32;91649.06;;;3.20;100.00
34506;BME280;20748;42.632;23.198;2023-12-07T06:10:06;91657.53;;;3.26;100.00
34506;BME280;20748;42.632;23.198;2023-12-07T06:12:40;91654.47;;;3.24;100.00
34506;BME280;20748;42.632;23.198;2023-12-07T06:15:15;91644.66;;;3.20;100.00
34506;BME280;20748;42.632;23.198;2023-12-07T06:18:07;91649.06;;;3.15;100.00
34506;BME280;20748;42.632;23.198;2023-12-07T06:20:42;91652.13;;;3.17;100.00
34506;BME280;20748;42.632;23.198;2023-12-07T06:23:16;91646.97;;;3.06;100.00
34506;BME280;20748;42.632;23.198;2023-12-07T06:25:50;91651.09;;;3.13;100.00
34506;BME280;20748;42.632;23.198;2023-12-07T06:28:23;91658.34;;;3.16;100.00
34506;BME280;20748;42.632;23.198;2023-12-07T06:30:57;91654.97;;;3.26;100.00
34506;BME280;20748;42.632;23.198;2023-12-07T06:33:31;91649.81;;;3.20;100.00
34506;BME280;20748;42.632;23.198;2023-12-07T06:36:07;91653.97;;;3.16;100.00
34506;BME280;20748;42.632;23.198;2023-12-07T06:38:41;91647.78;;;3.12;100.00
34506;BME280;20748;42.632;23.198;2023-12-07T06:41:15;91650.34;;;3.12;100.00
34506;BME280;20748;42.632;23.198;2023-12-07T06:43:49;91646.97;;;3.12;100.00
34506;BME280;20748;42.632;23.198;2023-12-07T06:46:22;91646.22;;;3.06;100.00
34506;BME280;20748;42.632;23.198;2023-12-07T06:48:56;91654.47;;;2.98;100.00
34506;BME280;20748;42.632;23.198;2023-12-07T06:51:31;91655.50;;;2.91;100.00
34506;BME280;20748;42.632;23.198;2023-12-07T06:54:05;91658.88;;;2.97;100.00
34506;BME280;20748;42.632;23.198;2023-12-07T06:56:39;91657.56;;;3.00;100.00
34506;BME280;20748;42.632;23.198;2023-12-07T06:59:13;91664.53;;;3.04;100.00
34506;BME280;20748;42.632;23.198;2023-12-07T07:01:46;91664.28;;;3.01;100.00
34506;BME280;20748;42.632;23.198;2023-12-07T07:04:21;91660.91;;;2.95;100.00
34506;BME280;20748;42.632;23.198;2023-12-07T07:06:56;91663.50;;;3.05;100.00
34506;BME280;20748;42.632;23.198;2023-12-07T07:09:30;91667.88;;;3.00;100.00
34506;BME280;20748;42.632;23.198;2023-12-07T07:12:05;91676.38;;;3.00;100.00
34506;BME280;20748;42.632;23.198;2023-12-07T07:14:38;91680.78;;;3.05;100.00
34506;BME280;20748;42.632;23.198;2023-12-07T07:17:13;91682.31;;;3.01;100.00
34506;BME280;20748;42.632;23.198;2023-12-07T07:19:47;91683.59;;;2.98;100.00
34506;BME280;20748;42.632;23.198;2023-12-07T07:22:23;91677.41;;;3.04;100.00
34506;BME280;20748;42.632;23.198;2023-12-07T07:24:57;91685.66;;;3.22;100.00
34506;BME280;20748;42.632;23.198;2023-12-07T07:27:30;91678.41;;;3.29;100.00
34506;BME280;20748;42.632;23.198;2023-12-07T07:30:05;91693.88;;;3.45;100.00
34506;BME280;20748;42.632;23.198;2023-12-07T07:32:40;91686.94;;;3.35;100.00
34506;BME280;20748;42.632;23.198;2023-12-07T07:35:14;91686.16;;;3.34;100.00
34506;BME280;20748;42.632;23.198;2023-12-07T07:37:49;91689.22;;;3.42;100.00
34506;BME280;20748;42.632;23.198;2023-12-07T07:40:23;91689.50;;;3.35;100.00
34506;BME280;20748;42.632;23.198;2023-12-07T07:42:57;91687.19;;;3.33;100.00
34506;BME280;20748;42.632;23.198;2023-12-07T07:45:31;91694.91;;;3.39;100.00
34506;BME280;20748;42.632;23.198;2023-12-07T07:48:05;91691.28;;;3.45;100.00
34506;BME280;20748;42.632;23.198;2023-12-07T07:50:39;91697.47;;;3.49;100.00
34506;BME280;20748;42.632;23.198;2023-12-07T07:53:14;91700.56;;;3.51;100.00
34506;BME280;20748;42.632;23.198;2023-12-07T07:55:48;91701.59;;;3.55;100.00
34506;BME280;20748;42.632;23.198;2023-12-07T07:58:21;91705.16;;;3.65;100.00
34506;BME280;20748;42.632;23.198;2023-12-07T08:00:55;91706.50;;;3.52;100.00
34506;BME280;20748;42.632;23.198;2023-12-07T08:03:29;91715.25;;;3.51;100.00
34506;BME280;20748;42.632;23.198;2023-12-07T08:06:04;91718.91;;;3.34;100.00
34506;BME280;20748;42.632;23.198;2023-12-07T08:08:39;91723.53;;;3.42;100.00
34506;BME280;20748;42.632;23.198;2023-12-07T08:11:14;91723.53;;;3.37;100.00
34506;BME280;20748;42.632;23.198;2023-12-07T08:13:48;91723.28;;;3.33;100.00
34506;BME280;20748;42.632;23.198;2023-12-07T08:16:23;91728.16;;;3.45;100.00
34506;BME280;20748;42.632;23.198;2023-12-07T08:18:56;91727.16;;;3.52;100.00
34506;BME280;20748;42.632;23.198;2023-12-07T08:21:31;91739.00;;;3.37;100.00
34506;BME280;20748;42.632;23.198;2023-12-07T08:24:07;91735.16;;;3.34;100.00
34506;BME280;20748;42.632;23.198;2023-12-07T08:26:40;91736.69;;;3.41;100.00
34506;BME280;20748;42.632;23.198;2023-12-07T08:29:14;91739.75;;;3.53;100.00
34506;BME280;20748;42.632;23.198;2023-12-07T08:31:48;91749.06;;;3.49;100.00
34506;BME280;20748;42.632;23.198;2023-12-07T08:34:22;91737.47;;;3.36;100.00
34506;BME280;20748;42.632;23.198;2023-12-07T08:36:56;91740.81;;;3.42;100.00
34506;BME280;20748;42.632;23.198;2023-12-07T08:39:32;91745.97;;;3.52;100.00
34506;BME280;20748;42.632;23.198;2023-12-07T08:42:06;91752.94;;;3.52;100.00
34506;BME280;20748;42.632;23.198;2023-12-07T08:44:39;91751.91;;;3.58;100.00
34506;BME280;20748;42.632;23.198;2023-12-07T08:47:13;91747.50;;;3.48;100.00
34506;BME280;20748;42.632;23.198;2023-12-07T08:49:47;91749.88;;;3.34;100.00
34506;BME280;20748;42.632;23.198;2023-12-07T08:52:20;91759.91;;;3.41;100.00
34506;BME280;20748;42.632;23.198;2023-12-07T08:55:13;91761.72;;;3.25;100.00
34506;BME280;20748;42.632;23.198;2023-12-07T08:57:48;91755.25;;;3.22;100.00
34506;BME280;20748;42.632;23.198;2023-12-07T09:00:22;91756.03;;;3.17;100.00
34506;BME280;20748;42.632;23.198;2023-12-07T09:02:58;91748.56;;;3.21;100.00
34506;BME280;20748;42.632;23.198;2023-12-07T09:05:32;91745.47;;;3.24;100.00
34506;BME280;20748;42.632;23.198;2023-12-07T09:08:06;91753.97;;;3.25;100.00
34506;BME280;20748;42.632;23.198;2023-12-07T09:10:41;91752.44;;;3.29;100.00
34506;BME280;20748;42.632;23.198;2023-12-07T09:13:15;91750.13;;;3.32;100.00
34506;BME280;20748;42.632;23.198;2023-12-07T09:15:49;91754.75;;;3.25;100.00
34506;BME280;20748;42.632;23.198;2023-12-07T09:18:23;91751.41;;;3.30;100.00
34506;BME280;20748;42.632;23.198;2023-12-07T09:20:57;91756.56;;;3.30;100.00
34506;BME280;20748;42.632;23.198;2023-12-07T09:23:31;91750.34;;;3.20;100.00
34506;BME280;20748;42.632;23.198;2023-12-07T09:26:06;91759.66;;;3.32;100.00
34506;BME280;20748;42.632;23.198;2023-12-07T09:28:40;91752.44;;;3.29;100.00
34506;BME280;20748;42.632;23.198;2023-12-07T09:31:14;91757.06;;;3.37;100.00
34506;BME280;20748;42.632;23.198;2023-12-07T09:33:49;91757.59;;;3.24;100.00
34506;BME280;20748;42.632;23.198;2023-12-07T09:36:25;91754.22;;;3.18;100.00
34506;BME280;20748;42.632;23.198;2023-12-07T09:39:00;91760.16;;;3.13;100.00
34506;BME280;20748;42.632;23.198;2023-12-07T09:41:36;91757.59;;;3.24;100.00
34506;BME280;20748;42.632;23.198;2023-12-07T09:44:10;91762.50;;;3.25;100.00
34506;BME280;20748;42.632;23.198;2023-12-07T09:46:44;91755.25;;;3.12;100.00
34506;BME280;20748;42.632;23.198;2023-12-07T09:49:17;91752.94;;;3.00;100.00
34506;BME280;20748;42.632;23.198;2023-12-07T09:51:52;91741.06;;;3.09;100.00
34506;BME280;20748;42.632;23.198;2023-12-07T09:54:27;91746.50;;;3.13;100.00
34506;BME280;20748;42.632;23.198;2023-12-07T09:57:04;91749.09;;;3.07;100.00
34506;BME280;20748;42.632;23.198;2023-12-07T09:59:39;91747.78;;;3.10;100.00
34506;BME280;20748;42.632;23.198;2023-12-07T10:02:13;91743.94;;;3.07;100.00
34506;BME280;20748;42.632;23.198;2023-12-07T10:04:48;91748.31;;;3.07;100.00
34506;BME280;20748;42.632;23.198;2023-12-07T10:07:32;91743.66;;;3.09;100.00
34506;BME280;20748;42.632;23.198;2023-12-07T10:10:06;91746.22;;;3.09;100.00
34506;BME280;20748;42.632;23.198;2023-12-07T10:12:46;91744.94;;;3.12;100.00
34506;BME280;20748;42.632;23.198;2023-12-07T10:15:21;91745.22;;;3.00;100.00
34506;BME280;20748;42.632;23.198;2023-12-07T10:17:56;91736.44;;;2.95;100.00
34506;BME280;20748;42.632;23.198;2023-12-07T10:20:32;91743.13;;;3.02;100.00
34506;BME280;20748;42.632;23.198;2023-12-07T10:23:06;91736.94;;;2.77;100.00
34506;BME280;20748;42.632;23.198;2023-12-07T10:25:41;91738.44;;;2.62;100.00
34506;BME280;20748;42.632;23.198;2023-12-07T10:28:17;91745.44;;;2.67;100.00
34506;BME280;20748;42.632;23.198;2023-12-07T10:30:52;91745.94;;;2.69;100.00
34506;BME280;20748;42.632;23.198;2023-12-07T10:33:26;91748.25;;;2.71;100.00
34506;BME280;20748;42.632;23.198;2023-12-07T10:36:02;91746.19;;;2.57;100.00
34506;BME280;20748;42.632;23.198;2023-12-07T10:38:36;91752.03;;;2.32;100.00
34506;BME280;20748;42.632;23.198;2023-12-07T10:41:15;91744.06;;;2.44;100.00
34506;BME280;20748;42.632;23.198;2023-12-07T10:43:52;91747.41;;;2.39;100.00
34506;BME280;20748;42.632;23.198;2023-12-07T10:46:27;91746.63;;;2.33;100.00
34506;BME280;20748;42.632;23.198;2023-12-07T10:49:04;91751.50;;;2.30;100.00
34506;BME280;20748;42.632;23.198;2023-12-07T10:51:52;91754.34;;;2.33;100.00
34506;BME280;20748;42.632;23.198;2023-12-07T10:54:34;91749.97;;;2.34;100.00
34506;BME280;20748;42.632;23.198;2023-12-07T10:57:11;91757.97;;;2.37;100.00
34506;BME280;20748;42.632;23.198;2023-12-07T10:59:48;91749.94;;;2.23;100.00
34506;BME280;20748;42.632;23.198;2023-12-07T11:02:24;91761.97;;;2.07;100.00
34506;BME280;20748;42.632;23.198;2023-12-07T11:04:59;91759.16;;;2.09;100.00
34506;BME280;20748;42.632;23.198;2023-12-07T11:07:42;91758.63;;;2.01;100.00
34506;BME280;20748;42.632;23.198;2023-12-07T11:10:24;91758.63;;;2.12;100.00
34506;BME280;20748;42.632;23.198;2023-12-07T11:13:05;91749.31;;;2.00;100.00
34506;BME280;20748;42.632;23.198;2023-12-07T11:15:43;91749.84;;;1.97;100.00
34506;BME280;20748;42.632;23.198;2023-12-07T11:18:17;91746.50;;;2.02;100.00
34506;BME280;20748;42.632;23.198;2023-12-07T11:20:52;91754.00;;;2.09;100.00
34506;BME280;20748;42.632;23.198;2023-12-07T11:23:27;91752.19;;;2.09;100.00
34506;BME280;20748;42.632;23.198;2023-12-07T11:26:01;91747.81;;;2.05;100.00
34506;BME280;20748;42.632;23.198;2023-12-07T11:28:37;91748.03;;;1.98;100.00
34506;BME280;20748;42.632;23.198;2023-12-07T11:31:13;91744.19;;;2.06;100.00
34506;BME280;20748;42.632;23.198;2023-12-07T11:33:46;91744.75;;;2.13;100.00
34506;BME280;20748;42.632;23.198;2023-12-07T11:36:21;91750.66;;;2.13;100.00
34506;BME280;20748;42.632;23.198;2023-12-07T11:39:16;91744.28;;;2.21;100.00
34506;BME280;20748;42.632;23.198;2023-12-07T11:42:06;91742.47;;;2.17;100.00
34506;BME280;20748;42.632;23.198;2023-12-07T11:44:42;91739.63;;;2.18;100.00
34506;BME280;20748;42.632;23.198;2023-12-07T11:47:20;91748.38;;;2.17;100.00
34506;BME280;20748;42.632;23.198;2023-12-07T11:49:54;91747.03;;;2.04;100.00
34506;BME280;20748;42.632;23.198;2023-12-07T11:52:27;91747.03;;;2.09;100.00
34506;BME280;20748;42.632;23.198;2023-12-07T11:55:01;91742.38;;;1.96;100.00
34506;BME280;20748;42.632;23.198;2023-12-07T11:57:35;91743.72;;;2.14;100.00
34506;BME280;20748;42.632;23.198;2023-12-07T12:00:10;91746.72;;;1.90;100.00
34506;BME280;20748;42.632;23.198;2023-12-07T12:02:48;91743.69;;;2.04;100.00
34506;BME280;20748;42.632;23.198;2023-12-07T12:05:22;91744.25;;;2.16;100.00
34506;BME280;20748;42.632;23.198;2023-12-07T12:07:56;91744.50;;;2.20;100.00
34506;BME280;20748;42.632;23.198;2023-12-07T12:10:29;91743.22;;;2.17;100.00
34506;BME280;20748;42.632;23.198;2023-12-07T12:13:03;91740.91;;;2.21;100.00
34506;BME280;20748;42.632;23.198;2023-12-07T12:15:37;91738.88;;;2.23;100.00
34506;BME280;20748;42.632;23.198;2023-12-07T12:18:13;91740.91;;;2.10;100.00
34506;BME280;20748;42.632;23.198;2023-12-07T12:20:50;91739.22;;;1.83;100.00
34506;BME280;20748;42.632;23.198;2023-12-07T12:23:24;91745.44;;;1.93;100.00
34506;BME280;20748;42.632;23.198;2023-12-07T12:25:57;91746.94;;;1.83;100.00
34506;BME280;20748;42.632;23.198;2023-12-07T12:28:32;91747.13;;;1.66;100.00
34506;BME280;20748;42.632;23.198;2023-12-07T12:31:09;91752.94;;;1.56;100.00
34506;BME280;20748;42.632;23.198;2023-12-07T12:33:45;91742.47;;;1.63;100.00
34506;BME280;20748;42.632;23.198;2023-12-07T12:36:19;91740.19;;;1.72;100.00
34506;BME280;20748;42.632;23.198;2023-12-07T12:38:55;91753.56;;;1.74;100.00
34506;BME280;20748;42.632;23.198;2023-12-07T12:41:29;91753.84;;;1.72;100.00
34506;BME280;20748;42.632;23.198;2023-12-07T12:44:05;91748.41;;;1.74;100.00
34506;BME280;20748;42.632;23.198;2023-12-07T12:46:41;91752.56;;;1.80;100.00
34506;BME280;20748;42.632;23.198;2023-12-07T12:49:16;91749.50;;;1.83;100.00
34506;BME280;20748;42.632;23.198;2023-12-07T12:51:50;91753.63;;;1.84;100.00
34506;BME280;20748;42.632;23.198;2023-12-07T12:54:30;91757.75;;;1.85;100.00
34506;BME280;20748;42.632;23.198;2023-12-07T12:57:06;91759.56;;;1.85;100.00
34506;BME280;20748;42.632;23.198;2023-12-07T12:59:40;91759.03;;;1.88;100.00
34506;BME280;20748;42.632;23.198;2023-12-07T13:02:14;91757.75;;;1.85;100.00
34506;BME280;20748;42.632;23.198;2023-12-07T13:04:49;91758.44;;;1.70;100.00
34506;BME280;20748;42.632;23.198;2023-12-07T13:07:23;91750.44;;;1.67;100.00
34506;BME280;20748;42.632;23.198;2023-12-07T13:09:58;91763.59;;;1.70;100.00
34506;BME280;20748;42.632;23.198;2023-12-07T13:12:33;91774.28;;;1.52;100.00
34506;BME280;20748;42.632;23.198;2023-12-07T13:15:09;91774.81;;;1.54;100.00
34506;BME280;20748;42.632;23.198;2023-12-07T13:17:43;91775.34;;;1.56;100.00
34506;BME280;20748;42.632;23.198;2023-12-07T13:20:18;91763.69;;;1.43;100.00
34506;BME280;20748;42.632;23.198;2023-12-07T13:22:52;91780.72;;;1.54;100.00
34506;BME280;20748;42.632;23.198;2023-12-07T13:25:27;91784.78;;;1.45;100.00
34506;BME280;20748;42.632;23.198;2023-12-07T13:28:01;91777.22;;;1.33;100.00
34506;BME280;20748;42.632;23.198;2023-12-07T13:30:36;91780.50;;;1.23;100.00